Saturday, December 16, 2017, 5:51 AM EST
Back to Local

KHYA, Hyannis Barnstable Boardmn

Location: West Yarmouth, MA, United States Lat: 41.667
Local Time: 5:51 AM EST (10:51 GMT) Lon: -70.267
Time Zone: US/Eastern Elev: 52 ft

Show me the last for .
Show Decoded

2017-12-16 04:56 METAR KHYA 160956Z AUTO 28007KT 10SM BKN090 M06/M08 A2983 RMK AO2 SLP104
                 T10561078 =
2017-12-16 03:56 METAR KHYA 160856Z AUTO 28007KT 10SM OVC090 M05/M07 A2980 RMK AO2 SLP094 60001
                 T10501072 51014 =
2017-12-16 02:56 METAR KHYA 160756Z AUTO 28007KT 9SM OVC047 M04/M07 A2980 RMK AO2 SLP092
                 T10391067 =
2017-12-16 02:08 METAR KHYA 160708Z AUTO 28008KT 10SM SCT025 OVC040 M04/M06 A2979 RMK AO2
                 T10391056 =
2017-12-16 01:56 METAR KHYA 160656Z AUTO 28006KT 10SM BKN025 BKN030 OVC040 M04/M06 A2978 RMK AO2
                 SNE28 SLP087 P0001 T10391056 =
2017-12-16 01:17 METAR KHYA 160617Z AUTO 30008KT 4SM -SN BR BKN027 OVC034 M03/M05 A2977 RMK AO2
                 P0001 T10331050 =
2017-12-16 01:13 METAR KHYA 160613Z AUTO 30008KT 2 1/2SM -SN BR FEW019 OVC031 M03/M05 A2977 RMK
                 AO2 P0001 T10331050 =
2017-12-16 01:05 METAR KHYA 160605Z AUTO 30006KT 1 3/4SM -SN BR SCT017 OVC031 M03/M04 A2977 RMK
                 AO2 P0001 T10331044 =
2017-12-16 00:56 METAR KHYA 160556Z AUTO 30005KT 1 1/4SM -SN BR BKN015 OVC031 M03/M04 A2976 RMK
                 AO2 SLP081 P0001 60009 T10331044 11011 21033 58009 =
2017-12-16 00:48 METAR KHYA 160548Z AUTO 31006KT 1SM -SN BR VV015 M03/M04 A2976 RMK AO2 P0001
                 T10331044 =
2017-12-16 00:38 METAR KHYA 160538Z AUTO 30005KT 1SM -SN BR VV014 M03/M04 A2976 RMK AO2 P0001
                 T10281039 =
2017-12-16 00:29 METAR KHYA 160529Z AUTO 31006KT 3/4SM -SN BR VV016 M03/M04 A2976 RMK AO2 P0001
                 T10281039 =
2017-12-16 00:12 METAR KHYA 160512Z AUTO 31007KT 1 1/4SM -SN BR SCT007 OVC018 M03/M04 A2977 RMK
                 AO2 P0000 T10281039 =
2017-12-15 23:56 METAR KHYA 160456Z AUTO 30007KT 1SM -SN BR SCT005 BKN010 OVC016 M02/M03 A2977
                 RMK AO2 SLP084 P0002 T10221033 410111100 =
2017-12-15 23:22 METAR KHYA 160422Z AUTO 31005KT 1SM -SN BR FEW005 OVC012 M02/M03 A2978 RMK AO2
                 P0001 T10171028 =
2017-12-15 23:14 METAR KHYA 160414Z AUTO 34006KT 3/4SM -SN BR BKN009 OVC015 M02/M03 A2978 RMK AO2
                 P0001 T10171028 =
2017-12-15 23:03 METAR KHYA 160403Z AUTO 31004KT 3/4SM -SN BR FEW006 OVC014 M01/M03 A2979 RMK AO2
                 P0000 T10111028 =
2017-12-15 22:56 METAR KHYA 160356Z AUTO 32004KT 1SM -SN BR OVC014 M02/M03 A2979 RMK AO2 SLP090
                 P0001 T10171028 =
2017-12-15 22:39 METAR KHYA 160339Z AUTO 33004KT 1 1/4SM -SN BR OVC014 M02/M03 A2979 RMK AO2
                 P0000 T10171028 =
2017-12-15 22:29 METAR KHYA 160329Z AUTO 00000KT 1 1/2SM -SN BR BKN015 OVC020 M02/M03 A2979 RMK
                 AO2 P0000 T10171028 =
2017-12-15 22:22 METAR KHYA 160322Z AUTO 00000KT 2SM -SN BR SCT015 BKN020 OVC039 M02/M03 A2979
                 RMK AO2 P0000 T10221028 =
2017-12-15 22:15 METAR KHYA 160315Z AUTO 00000KT 3SM -SN BR SCT020 BKN025 OVC047 M02/M03 A2979
                 RMK AO2 P0000 T10221033 =
2017-12-15 21:56 METAR KHYA 160256Z AUTO 00000KT 3SM -SN BR FEW025 BKN032 OVC049 M02/M03 A2980
                 RMK AO2 SLP094 P0001 60005 T10221033 56025 =
2017-12-15 21:48 METAR KHYA 160248Z 04003KT 2 1/2SM -SN BR FEW025 OVC032 M02/M03 A2980 RMK AO2
                 P0001 T10221033 =
2017-12-15 21:40 METAR KHYA 160240Z 00000KT 1 3/4SM -SN BR FEW023 OVC030 M02/M03 A2981 RMK AO2
                 P0001 T10221033 =
2017-12-15 20:56 METAR KHYA 160156Z 01003KT 1 1/4SM -SN BR OVC019 M03/M04 A2982 RMK AO2 SLP099
                 P0002 T10281039 =
2017-12-15 20:30 METAR KHYA 160130Z 01003KT 1SM -SN BR VV018 M03/M04 A2983 RMK AO2 P0001
                 T10281044 =
2017-12-15 20:22 METAR KHYA 160122Z 00000KT 3/4SM -SN BR BKN017 OVC028 M03/M04 A2984 RMK AO2
                 P0001 T10281044 =
2017-12-15 19:56 METAR KHYA 160056Z 00000KT 1 1/4SM -SN BR BKN020 OVC030 M03/M05 A2985 RMK AO2
                 SLP111 P0002 T10331050 =
2017-12-15 18:56 METAR KHYA 152356Z 00000KT 1SM -SN VV017 M03/M07 A2988 RMK AO2 SNB24 SLP119
                 P0001 60001 T10331067 11017 21033 56020 =
2017-12-15 18:41 METAR KHYA 152341Z 00000KT 1 1/4SM -SN BKN023 OVC033 M03/M07 A2988 RMK AO2 SNB24
                 P0000 T10281072 =
2017-12-15 18:34 METAR KHYA 152334Z 00000KT 1 3/4SM -SN BKN030 OVC036 M03/M07 A2988 RMK AO2 SNB24
                 P0000 T10281072 =
2017-12-15 17:56 METAR KHYA 152256Z 12004KT 10SM FEW036 OVC060 M02/M08 A2988 RMK AO2 SLP121
                 T10221083 =
2017-12-15 16:56 METAR KHYA 152156Z 05004KT 10SM OVC085 M02/M08 A2990 RMK AO2 SLP126 T10221083 =
2017-12-15 15:56 METAR KHYA 152056Z 04003KT 10SM OVC090 M02/M08 A2994 RMK AO2 SLP140 T10221083
                 58025 =
2017-12-15 14:56 METAR KHYA 151956Z 00000KT 10SM FEW120 M02/M09 A2997 RMK AO2 SLP150 T10221089 =
2017-12-15 13:56 METAR KHYA 151856Z 21005KT 10SM CLR M02/M09 A2998 RMK AO2 SLP155 T10221094 =
2017-12-15 12:56 METAR KHYA 151756Z 00000KT 10SM CLR M03/M11 A3001 RMK AO2 SLP165 T10281111 11028
                 21094 58034 =
2017-12-15 11:56 METAR KHYA 151656Z 00000KT 10SM CLR M04/M12 A3005 RMK AO2 SLP176 T10391117 =
2017-12-15 10:56 METAR KHYA 151556Z 00000KT 10SM CLR M04/M12 A3008 RMK AO2 SLP189 T10391117 =
2017-12-15 09:56 METAR KHYA 151456Z 00000KT 10SM CLR M05/M12 A3011 RMK AO2 SLP198 T10501122 53012
                 =
2017-12-15 08:56 METAR KHYA 151356Z 25004KT 10SM CLR M07/M13 A3010 RMK AO2 SLP193 T10671128 =
2017-12-15 07:56 METAR KHYA 151256Z 00000KT 10SM CLR M08/M13 A3008 RMK AO2 SLP186 T10831133 =
2017-12-15 06:56 METAR KHYA 151156Z 28005KT 10SM CLR M09/M14 A3008 RMK AO2 SLP187 70006 T10941144
                 11078 21100 52008 =
2017-12-15 05:56 METAR KHYA 151056Z 28005KT 10SM CLR M09/M14 A3007 RMK AO2 SLP184 T10891144 =

Support USWX by starting your Amazon purchase here.